Time;durP1;ratioP1;P1;durP2;ratioP2;P2;SDS_P1;SDS_P2;PMS_P1;PMS_P2;Temp;Humidity;BMP_temperature;BMP_pressure;BME280_temperature;BME280_humidity;BME280_pressure;Samples;Min_cycle;Max_cycle;Signal;HPM_P1;HPM_P2
2022/01/02 00:01:20;;;;;;;15.68;8.98;;;;;;;;;;4998988;28;20058;-73
2022/01/02 00:03:49;;;;;;;20.30;8.60;;;;;;;;;;4988780;28;20035;-74
2022/01/02 00:06:19;;;;;;;16.17;9.30;;;;;;;;;;4988594;28;20033;-74
2022/01/02 00:08:47;;;;;;;23.60;9.00;;;;;;;;;;4991063;28;20578;-73
2022/01/02 00:11:14;;;;;;;18.35;9.43;;;;;;;;;;5000325;28;20026;-73
2022/01/02 00:13:46;;;;;;;23.23;9.95;;;;;;;;;;5001872;28;20030;-73
2022/01/02 00:16:15;;;;;;;20.95;9.52;;;;;;;;;;4981905;28;20471;-74
2022/01/02 00:18:49;;;;;;;16.98;9.63;;;;;;;;;;5003094;28;20045;-73
2022/01/02 00:21:17;;;;;;;19.13;9.93;;;;;;;;;;4993421;28;20105;-72
2022/01/02 00:26:41;;;;;;;22.85;10.45;;;;;;;;;;4990997;28;20048;-73
2022/01/02 00:29:08;;;;;;;27.20;10.73;;;;;;;;;;5003627;28;20053;-73
2022/01/02 00:31:34;;;;;;;25.02;10.75;;;;;;;;;;5005596;28;20041;-73
2022/01/02 00:34:01;;;;;;;21.67;10.82;;;;;;;;;;5000026;28;20056;-74
2022/01/02 00:36:27;;;;;;;23.23;10.98;;;;;;;;;;4997835;28;20412;-73
2022/01/02 00:38:53;;;;;;;27.98;11.73;;;;;;;;;;4982011;28;20030;-74
2022/01/02 00:41:23;;;;;;;18.67;10.13;;;;;;;;;;4999433;28;20046;-73
2022/01/02 00:43:55;;;;;;;25.43;11.83;;;;;;;;;;4977491;28;20042;-73
2022/01/02 00:46:21;;;;;;;21.55;10.93;;;;;;;;;;4998833;28;20062;-74
2022/01/02 00:48:48;;;;;;;23.75;11.00;;;;;;;;;;4988650;28;20124;-74
2022/01/02 00:51:29;;;;;;;23.15;11.55;;;;;;;;;;4984460;28;20388;-73
2022/01/02 00:53:58;;;;;;;23.02;11.07;;;;;;;;;;4998697;28;20042;-73
2022/01/02 00:56:27;;;;;;;26.75;11.27;;;;;;;;;;5001289;28;20102;-73
2022/01/02 00:58:56;;;;;;;24.40;11.65;;;;;;;;;;5000816;28;20131;-73
2022/01/02 01:01:24;;;;;;;27.40;11.75;;;;;;;;;;4990960;28;20191;-73
2022/01/02 01:03:53;;;;;;;23.38;11.55;;;;;;;;;;5000417;28;20579;-74
2022/01/02 01:06:24;;;;;;;27.52;11.48;;;;;;;;;;4984342;28;20042;-73
2022/01/02 01:08:51;;;;;;;25.52;12.07;;;;;;;;;;4976901;28;20034;-73
2022/01/02 01:11:17;;;;;;;27.83;11.35;;;;;;;;;;4998931;28;20011;-74
2022/01/02 01:13:43;;;;;;;22.88;11.23;;;;;;;;;;4979667;28;20077;-73
2022/01/02 01:16:09;;;;;;;29.35;12.10;;;;;;;;;;4999037;28;20030;-74
2022/01/02 01:18:35;;;;;;;24.45;11.85;;;;;;;;;;4996883;28;20035;-74
2022/01/02 01:21:02;;;;;;;26.50;11.45;;;;;;;;;;4997866;28;20014;-73
2022/01/02 01:23:28;;;;;;;25.05;11.77;;;;;;;;;;4997118;28;20057;-73
2022/01/02 01:25:54;;;;;;;24.67;10.82;;;;;;;;;;4999797;28;20157;-73
2022/01/02 01:28:20;;;;;;;28.58;12.48;;;;;;;;;;4997852;28;20054;-73
2022/01/02 01:30:48;;;;;;;28.05;12.38;;;;;;;;;;4998483;28;20044;-73
2022/01/02 01:33:14;;;;;;;29.65;11.32;;;;;;;;;;4998530;28;20376;-73
2022/01/02 01:35:42;;;;;;;28.48;11.90;;;;;;;;;;4999938;28;20021;-74
2022/01/02 01:38:10;;;;;;;31.58;11.00;;;;;;;;;;4984812;28;20027;-73
2022/01/02 01:40:43;;;;;;;24.02;10.50;;;;;;;;;;4992987;28;20026;-73
2022/01/02 01:43:12;;;;;;;26.02;9.75;;;;;;;;;;5003420;28;20126;-72
2022/01/02 01:45:38;;;;;;;33.25;11.73;;;;;;;;;;5002264;28;20033;-73
2022/01/02 01:48:06;;;;;;;26.52;10.52;;;;;;;;;;5004558;28;20037;-73
2022/01/02 01:50:36;;;;;;;21.33;10.63;;;;;;;;;;4984538;28;20080;-74
2022/01/02 01:53:03;;;;;;;23.35;10.65;;;;;;;;;;5004780;28;20030;-72
2022/01/02 01:55:29;;;;;;;25.20;10.32;;;;;;;;;;5003663;28;20039;-73
2022/01/02 01:57:55;;;;;;;21.67;9.43;;;;;;;;;;4997507;28;20116;-72
2022/01/02 02:00:22;;;;;;;24.45;9.93;;;;;;;;;;4997961;28;20089;-73
2022/01/02 02:02:48;;;;;;;24.92;9.90;;;;;;;;;;4996659;28;20065;-73
2022/01/02 02:05:14;;;;;;;26.60;9.95;;;;;;;;;;4999843;28;20419;-73
2022/01/02 02:07:42;;;;;;;23.13;9.55;;;;;;;;;;4997904;28;20121;-73
2022/01/02 02:10:17;;;;;;;17.48;8.30;;;;;;;;;;4996237;28;20057;-73
2022/01/02 02:12:44;;;;;;;27.08;8.80;;;;;;;;;;4981396;28;20081;-73
2022/01/02 02:15:11;;;;;;;22.88;9.40;;;;;;;;;;4998547;28;20034;-74
2022/01/02 02:17:37;;;;;;;21.65;8.75;;;;;;;;;;4996990;28;20129;-73
2022/01/02 02:20:15;;;;;;;25.95;8.20;;;;;;;;;;4994503;28;20096;-73
2022/01/02 02:22:44;;;;;;;26.45;8.32;;;;;;;;;;4996606;28;20050;-73
2022/01/02 02:25:10;;;;;;;21.83;8.07;;;;;;;;;;4978999;28;20114;-73
2022/01/02 02:27:36;;;;;;;22.85;8.38;;;;;;;;;;4979168;28;20038;-72
2022/01/02 02:30:04;;;;;;;22.58;8.32;;;;;;;;;;4990754;28;20124;-73
2022/01/02 02:32:30;;;;;;;23.00;8.15;;;;;;;;;;4992250;28;20027;-72
2022/01/02 02:34:56;;;;;;;23.63;7.93;;;;;;;;;;4994187;28;20506;-73
2022/01/02 02:37:24;;;;;;;22.77;7.82;;;;;;;;;;4982645;28;20159;-72
2022/01/02 02:39:52;;;;;;;20.48;8.30;;;;;;;;;;4998243;28;20083;-73
2022/01/02 02:42:35;;;;;;;23.33;8.00;;;;;;;;;;4997616;28;20035;-73
2022/01/02 02:50:47;;;;;;;16.33;7.25;;;;;;;;;;4995353;28;20059;-72
2022/01/02 02:53:17;;;;;;;20.98;7.97;;;;;;;;;;5004534;28;20049;-72
2022/01/02 02:55:47;;;;;;;25.10;7.95;;;;;;;;;;4998724;28;20053;-73
2022/01/02 03:00:57;;;;;;;26.27;9.00;;;;;;;;;;4995386;28;20121;-73
2022/01/02 03:03:23;;;;;;;27.98;7.63;;;;;;;;;;4995432;28;20042;-73
2022/01/02 03:05:49;;;;;;;19.83;7.70;;;;;;;;;;4992010;28;20038;-72
2022/01/02 03:08:16;;;;;;;21.40;6.95;;;;;;;;;;4992352;28;20084;-72
2022/01/02 03:10:42;;;;;;;23.58;8.02;;;;;;;;;;4997408;28;20034;-73
2022/01/02 03:13:08;;;;;;;23.27;7.95;;;;;;;;;;4996103;28;20023;-73
2022/01/02 03:15:34;;;;;;;26.73;7.40;;;;;;;;;;4991312;28;20061;-73
2022/01/02 03:18:00;;;;;;;23.75;6.63;;;;;;;;;;4976604;28;20041;-71
2022/01/02 03:20:26;;;;;;;19.10;6.35;;;;;;;;;;4996547;28;20030;-73
2022/01/02 03:22:52;;;;;;;22.73;6.97;;;;;;;;;;4994585;28;20121;-71
2022/01/02 03:25:18;;;;;;;28.13;6.15;;;;;;;;;;4993760;28;20027;-73
2022/01/02 03:27:45;;;;;;;22.98;6.32;;;;;;;;;;4992860;28;20088;-72
2022/01/02 03:30:11;;;;;;;17.40;5.35;;;;;;;;;;4996071;28;20054;-73
2022/01/02 03:32:37;;;;;;;19.00;6.53;;;;;;;;;;4975384;28;20113;-73
2022/01/02 03:35:04;;;;;;;23.80;7.10;;;;;;;;;;4997391;28;20081;-73
2022/01/02 03:37:33;;;;;;;18.17;6.70;;;;;;;;;;4989226;28;20041;-73
2022/01/02 03:39:59;;;;;;;19.77;6.13;;;;;;;;;;4971638;28;20018;-73
2022/01/02 03:42:25;;;;;;;20.83;7.32;;;;;;;;;;4976743;28;20549;-73
2022/01/02 03:44:51;;;;;;;22.40;7.22;;;;;;;;;;4978283;28;20065;-76
2022/01/02 03:47:18;;;;;;;21.67;7.13;;;;;;;;;;4993303;28;20042;-73
2022/01/02 03:49:44;;;;;;;23.55;7.45;;;;;;;;;;4979524;28;20077;-74
2022/01/02 03:52:10;;;;;;;20.67;6.82;;;;;;;;;;4994298;28;20122;-73
2022/01/02 03:54:36;;;;;;;23.98;7.40;;;;;;;;;;4994949;28;20093;-73
2022/01/02 03:57:02;;;;;;;27.00;7.60;;;;;;;;;;4993786;28;20018;-73
2022/01/02 03:59:28;;;;;;;28.90;7.90;;;;;;;;;;4994547;28;20026;-73
2022/01/02 04:01:54;;;;;;;24.38;8.32;;;;;;;;;;4992188;28;20542;-74
2022/01/02 04:04:20;;;;;;;20.70;7.88;;;;;;;;;;4979930;28;20139;-74
2022/01/02 04:06:46;;;;;;;23.63;6.60;;;;;;;;;;4993393;28;20312;-73
2022/01/02 04:09:12;;;;;;;20.08;6.60;;;;;;;;;;4994919;28;20026;-73
2022/01/02 04:11:38;;;;;;;19.75;6.10;;;;;;;;;;4994525;28;20117;-74
2022/01/02 04:14:04;;;;;;;14.88;5.55;;;;;;;;;;4994606;28;20046;-73
2022/01/02 04:16:30;;;;;;;23.20;5.65;;;;;;;;;;4993503;28;20567;-73
2022/01/02 04:18:56;;;;;;;22.50;5.80;;;;;;;;;;4980775;28;20045;-73
2022/01/02 04:21:22;;;;;;;19.65;6.72;;;;;;;;;;4993492;28;20141;-73
2022/01/02 04:23:48;;;;;;;21.17;5.32;;;;;;;;;;4989584;28;20046;-73
2022/01/02 04:26:15;;;;;;;14.23;5.22;;;;;;;;;;4993580;28;20031;-73
2022/01/02 04:28:41;;;;;;;19.90;5.32;;;;;;;;;;4970140;28;20038;-73
2022/01/02 04:31:09;;;;;;;18.30;5.25;;;;;;;;;;4990985;28;20042;-73
2022/01/02 04:33:35;;;;;;;18.63;5.93;;;;;;;;;;4996415;28;20041;-73
2022/01/02 04:36:01;;;;;;;17.42;6.15;;;;;;;;;;4991436;28;20129;-74
2022/01/02 04:38:27;;;;;;;17.33;4.70;;;;;;;;;;4980076;28;20038;-74
2022/01/02 04:40:53;;;;;;;20.13;6.85;;;;;;;;;;4995314;28;20022;-74
2022/01/02 04:43:19;;;;;;;19.40;5.53;;;;;;;;;;4980156;28;20032;-74
2022/01/02 04:45:45;;;;;;;19.00;5.78;;;;;;;;;;4996383;28;21732;-74
2022/01/02 04:48:11;;;;;;;20.25;6.10;;;;;;;;;;4982835;28;20491;-73
2022/01/02 04:50:38;;;;;;;22.95;5.95;;;;;;;;;;4982519;28;20133;-74
2022/01/02 04:53:04;;;;;;;15.15;5.88;;;;;;;;;;4972971;28;20428;-73
2022/01/02 04:55:30;;;;;;;20.25;6.55;;;;;;;;;;4995888;28;20038;-73
2022/01/02 04:57:56;;;;;;;13.93;5.70;;;;;;;;;;4982025;28;20096;-72
2022/01/02 05:00:22;;;;;;;15.40;5.43;;;;;;;;;;4996220;28;20057;-73
2022/01/02 05:02:49;;;;;;;19.08;5.57;;;;;;;;;;4979149;28;20038;-74
2022/01/02 05:05:16;;;;;;;18.55;5.97;;;;;;;;;;4982938;28;20038;-73
2022/01/02 05:07:42;;;;;;;17.88;6.07;;;;;;;;;;4978469;28;20074;-72
2022/01/02 05:10:08;;;;;;;19.30;6.03;;;;;;;;;;4997534;28;20419;-73
2022/01/02 05:12:34;;;;;;;15.50;5.72;;;;;;;;;;4981039;28;20096;-73
2022/01/02 05:15:01;;;;;;;23.60;6.05;;;;;;;;;;5000083;28;20061;-73
2022/01/02 05:17:27;;;;;;;21.63;6.35;;;;;;;;;;5004440;28;20057;-76
2022/01/02 05:19:53;;;;;;;17.52;5.65;;;;;;;;;;5009759;28;20158;-74
2022/01/02 05:22:19;;;;;;;18.65;5.70;;;;;;;;;;4971673;28;20523;-73
2022/01/02 05:24:45;;;;;;;14.27;6.55;;;;;;;;;;4999760;28;20034;-74
2022/01/02 05:27:11;;;;;;;17.48;5.53;;;;;;;;;;4997914;28;20099;-71
2022/01/02 05:29:37;;;;;;;19.92;6.38;;;;;;;;;;4996659;28;20125;-74
2022/01/02 05:32:03;;;;;;;19.65;6.10;;;;;;;;;;4977987;28;20572;-73
2022/01/02 05:34:29;;;;;;;17.20;5.85;;;;;;;;;;4999236;28;20044;-73
2022/01/02 05:36:55;;;;;;;21.70;6.50;;;;;;;;;;4997280;28;20138;-73
2022/01/02 05:39:21;;;;;;;17.92;5.97;;;;;;;;;;4995424;28;20034;-74
2022/01/02 05:41:48;;;;;;;13.85;6.03;;;;;;;;;;4994327;28;20120;-72
2022/01/02 05:44:15;;;;;;;12.95;5.45;;;;;;;;;;4998580;28;20038;-74
2022/01/02 05:46:41;;;;;;;17.38;6.00;;;;;;;;;;4993923;28;20065;-72
2022/01/02 05:49:07;;;;;;;18.70;6.13;;;;;;;;;;4982732;28;20026;-73
2022/01/02 05:51:33;;;;;;;14.00;5.88;;;;;;;;;;4995588;28;20033;-73
2022/01/02 05:53:59;;;;;;;13.20;5.50;;;;;;;;;;4965418;28;20110;-73
2022/01/02 05:56:25;;;;;;;15.02;6.50;;;;;;;;;;4993850;28;20486;-73
2022/01/02 05:58:51;;;;;;;16.83;6.00;;;;;;;;;;4999743;28;20025;-72
2022/01/02 06:01:17;;;;;;;17.13;6.60;;;;;;;;;;4993930;28;20113;-73
2022/01/02 06:03:43;;;;;;;21.17;5.57;;;;;;;;;;4979682;28;20045;-73
2022/01/02 06:06:09;;;;;;;12.95;5.55;;;;;;;;;;4979904;28;20049;-73
2022/01/02 06:08:35;;;;;;;15.23;5.45;;;;;;;;;;4999770;28;20046;-73
2022/01/02 06:11:01;;;;;;;21.00;6.82;;;;;;;;;;4978193;28;20023;-73
2022/01/02 06:13:27;;;;;;;15.18;5.88;;;;;;;;;;4979361;28;20053;-75
2022/01/02 06:15:53;;;;;;;13.95;5.60;;;;;;;;;;4977107;28;20031;-73
2022/01/02 06:18:20;;;;;;;17.67;5.47;;;;;;;;;;4980570;28;20038;-73
2022/01/02 06:20:46;;;;;;;12.35;6.00;;;;;;;;;;4995362;28;20034;-72
2022/01/02 06:23:12;;;;;;;13.65;6.32;;;;;;;;;;4997459;28;20058;-72
2022/01/02 06:25:38;;;;;;;12.10;5.25;;;;;;;;;;4963433;28;20039;-72
2022/01/02 06:28:04;;;;;;;13.43;5.18;;;;;;;;;;4978541;28;20488;-73
2022/01/02 06:30:30;;;;;;;15.80;5.05;;;;;;;;;;4993854;28;20030;-74
2022/01/02 06:32:56;;;;;;;12.15;4.63;;;;;;;;;;4996806;28;20435;-72
2022/01/02 06:35:23;;;;;;;15.60;5.50;;;;;;;;;;4992590;28;20022;-73
2022/01/02 06:37:50;;;;;;;15.02;5.65;;;;;;;;;;4994041;28;20041;-72
2022/01/02 06:40:16;;;;;;;20.17;5.55;;;;;;;;;;4978204;28;20091;-73
2022/01/02 06:42:42;;;;;;;10.27;5.43;;;;;;;;;;4996039;28;20041;-72
2022/01/02 06:45:08;;;;;;;15.18;5.53;;;;;;;;;;4997281;28;20507;-73
2022/01/02 06:47:34;;;;;;;10.80;5.32;;;;;;;;;;4995505;28;20041;-73
2022/01/02 06:50:00;;;;;;;14.85;5.43;;;;;;;;;;4994722;28;20038;-73
2022/01/02 06:52:26;;;;;;;16.38;5.35;;;;;;;;;;4996292;28;20409;-70
2022/01/02 06:54:53;;;;;;;12.10;4.97;;;;;;;;;;4978490;28;20023;-73
2022/01/02 06:57:20;;;;;;;17.02;5.35;;;;;;;;;;4995076;28;20024;-71
2022/01/02 06:59:46;;;;;;;13.13;4.95;;;;;;;;;;4979064;28;20014;-72
2022/01/02 07:02:12;;;;;;;11.77;4.88;;;;;;;;;;4996912;28;20034;-71
2022/01/02 07:04:38;;;;;;;13.30;5.15;;;;;;;;;;4995813;28;20026;-72
2022/01/02 07:07:04;;;;;;;17.08;4.68;;;;;;;;;;4995133;28;20061;-72
2022/01/02 07:09:31;;;;;;;18.92;5.35;;;;;;;;;;4983882;28;20026;-72
2022/01/02 07:11:58;;;;;;;14.95;4.80;;;;;;;;;;4992992;28;20049;-72
2022/01/02 07:14:26;;;;;;;13.95;4.38;;;;;;;;;;4996618;28;20046;-72
2022/01/02 07:16:52;;;;;;;16.08;4.82;;;;;;;;;;4994714;28;20526;-72
2022/01/02 07:19:18;;;;;;;11.68;4.15;;;;;;;;;;4996615;28;20029;-72
2022/01/02 07:21:44;;;;;;;14.02;4.28;;;;;;;;;;4991588;28;20472;-72
2022/01/02 07:24:10;;;;;;;13.52;4.38;;;;;;;;;;4994905;28;20034;-73
2022/01/02 07:26:36;;;;;;;11.07;4.25;;;;;;;;;;4992344;28;20047;-73
2022/01/02 07:29:02;;;;;;;12.13;3.85;;;;;;;;;;4977954;28;20026;-72
2022/01/02 07:31:29;;;;;;;9.80;4.80;;;;;;;;;;4992822;28;20117;-72
2022/01/02 07:33:55;;;;;;;16.65;4.97;;;;;;;;;;4995854;28;20038;-73
2022/01/02 07:36:21;;;;;;;12.93;5.28;;;;;;;;;;4992653;28;20050;-72
2022/01/02 07:38:47;;;;;;;13.82;4.20;;;;;;;;;;4992767;28;20042;-74
2022/01/02 07:41:14;;;;;;;14.65;5.53;;;;;;;;;;4994020;28;20027;-73
2022/01/02 07:43:40;;;;;;;17.98;6.05;;;;;;;;;;4979020;28;20030;-73
2022/01/02 07:46:06;;;;;;;13.43;4.60;;;;;;;;;;4992572;28;20120;-72
2022/01/02 07:48:32;;;;;;;12.57;4.78;;;;;;;;;;4977814;28;20025;-73
2022/01/02 07:50:59;;;;;;;10.15;4.40;;;;;;;;;;4975989;28;20431;-72
2022/01/02 07:53:25;;;;;;;14.05;5.43;;;;;;;;;;4993746;28;20026;-73
2022/01/02 07:55:51;;;;;;;12.10;4.55;;;;;;;;;;4992439;28;20041;-73
2022/01/02 07:58:17;;;;;;;13.30;4.55;;;;;;;;;;4996078;28;20026;-73
2022/01/02 08:00:43;;;;;;;11.65;4.25;;;;;;;;;;4995572;28;20018;-73
2022/01/02 08:03:09;;;;;;;15.02;4.68;;;;;;;;;;4994708;28;20019;-75
2022/01/02 08:05:35;;;;;;;16.13;4.68;;;;;;;;;;4992879;28;20135;-73
2022/01/02 08:08:01;;;;;;;9.50;4.60;;;;;;;;;;4992880;28;20038;-72
2022/01/02 08:10:28;;;;;;;10.77;4.38;;;;;;;;;;4990337;28;20043;-73
2022/01/02 08:12:54;;;;;;;15.18;5.03;;;;;;;;;;5000101;28;20435;-73
2022/01/02 08:15:21;;;;;;;12.18;4.40;;;;;;;;;;4974329;28;20110;-72
2022/01/02 08:17:47;;;;;;;10.00;4.43;;;;;;;;;;4999144;28;20085;-73
2022/01/02 08:20:14;;;;;;;12.85;5.00;;;;;;;;;;5006192;28;20066;-73
2022/01/02 08:22:40;;;;;;;14.77;5.13;;;;;;;;;;4999735;28;20030;-73
2022/01/02 08:25:07;;;;;;;12.63;5.05;;;;;;;;;;4983727;28;20027;-74
2022/01/02 08:27:33;;;;;;;14.77;5.45;;;;;;;;;;4999362;28;20042;-76
2022/01/02 08:29:59;;;;;;;11.02;5.10;;;;;;;;;;5003592;28;20069;-73
2022/01/02 08:32:25;;;;;;;13.38;4.63;;;;;;;;;;4993497;28;20049;-73
2022/01/02 08:34:51;;;;;;;17.60;5.43;;;;;;;;;;4999492;28;20041;-73
2022/01/02 08:37:17;;;;;;;12.05;4.95;;;;;;;;;;4999876;28;20049;-72
2022/01/02 08:39:44;;;;;;;12.38;4.95;;;;;;;;;;4994597;28;20018;-73
2022/01/02 08:42:11;;;;;;;10.50;4.57;;;;;;;;;;4993391;28;20039;-71
2022/01/02 08:44:38;;;;;;;10.85;5.03;;;;;;;;;;4990652;28;20049;-74
2022/01/02 08:47:04;;;;;;;13.30;5.05;;;;;;;;;;4997518;28;20030;-74
2022/01/02 08:49:30;;;;;;;16.70;5.18;;;;;;;;;;4995513;28;20057;-74
2022/01/02 08:51:56;;;;;;;12.40;5.05;;;;;;;;;;4980175;28;20066;-74
2022/01/02 08:54:22;;;;;;;13.88;5.57;;;;;;;;;;4996045;28;20057;-75
2022/01/02 08:56:48;;;;;;;16.45;5.55;;;;;;;;;;4980329;28;20042;-74
2022/01/02 08:59:15;;;;;;;10.07;5.22;;;;;;;;;;4997370;28;20038;-74
2022/01/02 09:01:41;;;;;;;15.13;5.63;;;;;;;;;;4988836;28;20056;-73
2022/01/02 09:04:07;;;;;;;16.50;6.82;;;;;;;;;;4997396;28;20037;-73
2022/01/02 09:06:33;;;;;;;14.27;5.57;;;;;;;;;;4994318;28;20049;-76
2022/01/02 09:08:59;;;;;;;14.48;5.28;;;;;;;;;;4994768;28;20034;-74
2022/01/02 09:11:25;;;;;;;12.65;5.85;;;;;;;;;;4989988;28;20042;-74
2022/01/02 09:13:51;;;;;;;10.77;5.93;;;;;;;;;;4996718;28;20088;-72
2022/01/02 09:16:17;;;;;;;13.73;5.38;;;;;;;;;;4995688;28;20022;-72
2022/01/02 09:18:43;;;;;;;17.25;5.95;;;;;;;;;;4993371;28;20057;-73
2022/01/02 09:21:09;;;;;;;15.48;7.43;;;;;;;;;;4992640;28;20391;-73
2022/01/02 09:23:36;;;;;;;12.15;5.78;;;;;;;;;;4992656;28;20050;-73
2022/01/02 09:26:02;;;;;;;11.57;6.13;;;;;;;;;;4993281;28;20022;-74
2022/01/02 09:28:28;;;;;;;14.35;5.78;;;;;;;;;;4974857;28;20747;-74
2022/01/02 09:30:54;;;;;;;12.10;6.40;;;;;;;;;;4996770;28;20038;-72
2022/01/02 09:33:20;;;;;;;15.57;6.63;;;;;;;;;;4997741;28;20042;-74
2022/01/02 09:35:46;;;;;;;14.25;6.70;;;;;;;;;;4992731;28;20034;-73
2022/01/02 09:38:12;;;;;;;12.10;6.05;;;;;;;;;;4978434;28;20027;-72
2022/01/02 09:40:40;;;;;;;14.38;7.05;;;;;;;;;;4980418;28;20089;-74
2022/01/02 09:43:06;;;;;;;14.20;6.50;;;;;;;;;;4997141;28;20105;-73
2022/01/02 09:45:38;;;;;;;9.32;6.10;;;;;;;;;;4996361;28;20030;-73
2022/01/02 09:48:07;;;;;;;12.10;5.97;;;;;;;;;;4992969;28;20018;-72
2022/01/02 09:50:35;;;;;;;13.80;6.28;;;;;;;;;;4993922;28;20022;-73
2022/01/02 09:53:01;;;;;;;19.42;6.85;;;;;;;;;;4995829;28;20765;-73
2022/01/02 09:55:28;;;;;;;11.10;6.45;;;;;;;;;;4992554;28;20078;-73
2022/01/02 09:57:58;;;;;;;13.85;6.93;;;;;;;;;;4975865;28;20034;-74
2022/01/02 10:00:24;;;;;;;11.75;6.35;;;;;;;;;;4979038;28;20105;-74
2022/01/02 10:03:01;;;;;;;16.83;6.63;;;;;;;;;;4991910;28;20203;-73
2022/01/02 10:05:28;;;;;;;25.13;6.93;;;;;;;;;;4997092;28;20096;-72
2022/01/02 10:07:54;;;;;;;15.45;6.80;;;;;;;;;;4996172;28;20026;-73
2022/01/02 10:10:33;;;;;;;12.35;6.40;;;;;;;;;;4995258;28;20129;-73
2022/01/02 10:13:01;;;;;;;22.02;6.68;;;;;;;;;;4998261;28;20019;-74
2022/01/02 10:15:28;;;;;;;15.68;6.32;;;;;;;;;;4999922;28;20034;-72
2022/01/02 10:17:58;;;;;;;18.20;7.32;;;;;;;;;;4988417;28;20053;-74
2022/01/02 10:20:27;;;;;;;12.10;6.10;;;;;;;;;;4993842;28;20404;-71
2022/01/02 10:23:02;;;;;;;17.08;7.72;;;;;;;;;;4996406;28;20037;-73
2022/01/02 10:25:45;;;;;;;11.73;6.53;;;;;;;;;;4998872;28;20046;-72
2022/01/02 10:28:26;;;;;;;21.25;6.68;;;;;;;;;;4995220;28;20030;-72
2022/01/02 10:30:52;;;;;;;16.25;6.63;;;;;;;;;;4991520;28;20026;-71
2022/01/02 10:33:18;;;;;;;18.40;6.53;;;;;;;;;;4994549;28;20050;-71
2022/01/02 10:35:45;;;;;;;18.95;6.65;;;;;;;;;;4995820;28;20502;-71
2022/01/02 10:38:17;;;;;;;12.70;6.68;;;;;;;;;;4999019;28;20266;-70
2022/01/02 10:40:44;;;;;;;19.15;6.60;;;;;;;;;;4995320;28;20026;-72
2022/01/02 10:43:11;;;;;;;18.95;6.63;;;;;;;;;;4979512;28;20109;-71
2022/01/02 10:45:43;;;;;;;20.00;7.20;;;;;;;;;;4992621;28;20065;-72
2022/01/02 10:48:10;;;;;;;20.55;7.18;;;;;;;;;;4997475;28;20022;-72
2022/01/02 10:50:37;;;;;;;15.70;6.25;;;;;;;;;;4976994;28;20042;-72
2022/01/02 10:53:16;;;;;;;14.88;6.25;;;;;;;;;;4995260;28;20050;-72
2022/01/02 10:55:46;;;;;;;19.98;7.45;;;;;;;;;;4994738;28;20412;-72
2022/01/02 10:58:12;;;;;;;15.07;6.40;;;;;;;;;;4997653;28;20026;-72
2022/01/02 11:00:39;;;;;;;24.75;6.93;;;;;;;;;;4976342;28;20040;-71
2022/01/02 11:03:09;;;;;;;17.83;6.57;;;;;;;;;;4991795;28;20026;-72
2022/01/02 11:05:39;;;;;;;15.80;6.05;;;;;;;;;;4994620;28;20034;-73
2022/01/02 11:08:05;;;;;;;17.40;7.28;;;;;;;;;;4982473;28;20042;-72
2022/01/02 11:10:33;;;;;;;23.77;6.90;;;;;;;;;;4994369;28;20459;-71
2022/01/02 11:13:00;;;;;;;19.48;7.00;;;;;;;;;;4994806;28;20033;-71
2022/01/02 11:15:27;;;;;;;29.48;6.78;;;;;;;;;;4993847;28;20110;-71
2022/01/02 11:17:54;;;;;;;24.77;6.97;;;;;;;;;;4995546;28;20038;-70
2022/01/02 11:20:24;;;;;;;18.60;7.05;;;;;;;;;;4993996;28;20372;-71
2022/01/02 11:22:56;;;;;;;24.33;6.27;;;;;;;;;;4996161;28;20026;-73
2022/01/02 11:25:37;;;;;;;14.57;4.95;;;;;;;;;;4993917;28;20301;-71
2022/01/02 11:28:05;;;;;;;28.43;5.37;;;;;;;;;;4975629;28;20125;-72
2022/01/02 11:30:31;;;;;;;21.67;4.65;;;;;;;;;;4991882;28;20038;-74
2022/01/02 11:33:19;;;;;;;20.23;4.43;;;;;;;;;;4993623;28;20504;-71
2022/01/02 11:35:47;;;;;;;27.63;4.35;;;;;;;;;;4993801;28;20037;-71
2022/01/02 11:38:15;;;;;;;24.50;4.72;;;;;;;;;;4976965;28;20033;-71
2022/01/02 11:40:53;;;;;;;23.55;4.90;;;;;;;;;;4991661;28;20095;-70
2022/01/02 11:43:48;;;;;;;22.23;4.85;;;;;;;;;;4994221;28;20078;-72
2022/01/02 11:46:14;;;;;;;19.55;4.43;;;;;;;;;;4993243;28;20037;-72
2022/01/02 11:48:41;;;;;;;24.13;5.35;;;;;;;;;;4975564;28;20054;-73
2022/01/02 11:51:07;;;;;;;27.00;5.65;;;;;;;;;;4995317;28;20248;-74
2022/01/02 11:53:35;;;;;;;21.02;4.88;;;;;;;;;;4975116;28;20092;-73
2022/01/02 11:56:01;;;;;;;25.98;4.60;;;;;;;;;;4995722;28;20022;-73
2022/01/02 11:58:36;;;;;;;20.15;5.07;;;;;;;;;;4994678;28;20511;-73
2022/01/02 12:01:02;;;;;;;21.42;4.43;;;;;;;;;;4996001;28;20018;-73
2022/01/02 12:03:41;;;;;;;21.23;4.47;;;;;;;;;;4973087;28;20046;-73
2022/01/02 12:06:24;;;;;;;23.05;3.85;;;;;;;;;;4969297;28;20077;-73
2022/01/02 12:08:51;;;;;;;33.28;5.15;;;;;;;;;;4992359;28;20014;-74
2022/01/02 12:11:44;;;;;;;23.73;4.18;;;;;;;;;;4987963;28;20086;-73
2022/01/02 12:14:11;;;;;;;21.70;4.25;;;;;;;;;;4989847;28;20550;-72
2022/01/02 12:16:51;;;;;;;22.35;4.13;;;;;;;;;;4992158;28;20019;-73
2022/01/02 12:19:17;;;;;;;21.73;4.07;;;;;;;;;;4992954;28;20037;-74
2022/01/02 12:22:02;;;;;;;25.10;4.93;;;;;;;;;;4993242;28;20598;-71
2022/01/02 12:24:30;;;;;;;16.80;3.75;;;;;;;;;;4993913;28;20046;-72
2022/01/02 12:27:07;;;;;;;24.50;5.30;;;;;;;;;;4993034;28;20114;-72
2022/01/02 12:29:33;;;;;;;15.75;3.22;;;;;;;;;;4976983;28;20034;-71
2022/01/02 12:32:01;;;;;;;16.08;3.17;;;;;;;;;;4975315;28;20043;-72
2022/01/02 12:34:30;;;;;;;16.88;3.33;;;;;;;;;;4993485;28;20077;-71
2022/01/02 12:36:58;;;;;;;20.50;3.85;;;;;;;;;;4993851;28;20042;-71
2022/01/02 12:39:25;;;;;;;15.05;3.10;;;;;;;;;;4975730;28;20031;-72
2022/01/02 12:41:53;;;;;;;15.82;2.65;;;;;;;;;;4975816;28;20031;-71
2022/01/02 12:44:26;;;;;;;14.73;3.28;;;;;;;;;;4975326;28;20109;-72
2022/01/02 12:46:53;;;;;;;21.25;3.03;;;;;;;;;;4992000;28;20514;-74
2022/01/02 12:49:20;;;;;;;19.98;3.25;;;;;;;;;;4989382;28;20054;-74
2022/01/02 12:51:48;;;;;;;15.77;3.22;;;;;;;;;;4993096;28;20068;-74
2022/01/02 12:54:16;;;;;;;22.50;3.10;;;;;;;;;;4978295;28;20022;-72
2022/01/02 12:56:43;;;;;;;25.92;3.80;;;;;;;;;;4991930;28;20034;-72
2022/01/02 12:59:34;;;;;;;23.88;3.75;;;;;;;;;;4990136;28;20369;-72
2022/01/02 13:02:03;;;;;;;22.92;3.63;;;;;;;;;;4986204;28;20045;-72
2022/01/02 13:04:30;;;;;;;22.50;3.53;;;;;;;;;;4992017;28;20034;-72
2022/01/02 13:06:58;;;;;;;25.02;3.63;;;;;;;;;;4977676;28;20033;-72
2022/01/02 13:09:25;;;;;;;18.40;4.57;;;;;;;;;;4993283;28;20036;-71
2022/01/02 13:11:51;;;;;;;22.58;4.60;;;;;;;;;;4993355;28;20031;-72
2022/01/02 13:14:37;;;;;;;23.75;3.72;;;;;;;;;;4993273;28;20139;-73
2022/01/02 13:17:06;;;;;;;20.48;3.97;;;;;;;;;;4994964;28;20042;-73
2022/01/02 13:19:33;;;;;;;20.85;3.45;;;;;;;;;;4991917;28;20034;-72
2022/01/02 13:21:59;;;;;;;20.17;3.53;;;;;;;;;;4982950;28;20151;-71
2022/01/02 13:24:30;;;;;;;23.35;4.03;;;;;;;;;;4995065;28;20537;-72
2022/01/02 13:26:56;;;;;;;22.25;4.10;;;;;;;;;;4996277;28;20027;-72
2022/01/02 13:29:24;;;;;;;15.60;3.00;;;;;;;;;;4998573;28;20030;-72
2022/01/02 13:31:51;;;;;;;20.83;4.20;;;;;;;;;;4978458;28;20506;-71
2022/01/02 13:34:24;;;;;;;12.95;2.78;;;;;;;;;;4976188;28;20018;-72
2022/01/02 13:37:02;;;;;;;20.48;3.58;;;;;;;;;;4984126;28;20053;-72
2022/01/02 13:39:42;;;;;;;21.13;4.18;;;;;;;;;;4988811;28;20488;-71
2022/01/02 13:42:08;;;;;;;17.70;3.63;;;;;;;;;;4979005;28;20457;-72
2022/01/02 13:44:40;;;;;;;25.38;3.85;;;;;;;;;;4991319;28;20105;-73
2022/01/02 13:47:06;;;;;;;27.70;4.90;;;;;;;;;;4987122;28;20031;-72
2022/01/02 13:49:43;;;;;;;29.60;4.32;;;;;;;;;;4995432;28;20109;-72
2022/01/02 13:52:09;;;;;;;30.92;4.18;;;;;;;;;;4997083;28;20033;-73
2022/01/02 13:54:35;;;;;;;28.67;6.05;;;;;;;;;;5001720;28;20129;-72
2022/01/02 13:57:04;;;;;;;34.33;5.65;;;;;;;;;;4995607;28;20169;-72
2022/01/02 13:59:30;;;;;;;22.60;4.00;;;;;;;;;;4998909;28;20077;-72
2022/01/02 14:01:57;;;;;;;22.00;3.50;;;;;;;;;;4993480;28;20038;-73
2022/01/02 14:04:23;;;;;;;20.63;4.20;;;;;;;;;;4996072;28;20037;-72
2022/01/02 14:06:49;;;;;;;22.17;4.07;;;;;;;;;;4998359;28;20031;-73
2022/01/02 14:09:16;;;;;;;26.65;4.57;;;;;;;;;;4996009;28;20038;-73
2022/01/02 14:11:43;;;;;;;25.58;4.07;;;;;;;;;;4995457;28;20081;-72
2022/01/02 14:17:01;;;;;;;20.77;3.53;;;;;;;;;;4993677;28;20516;-72
2022/01/02 14:19:27;;;;;;;19.33;3.03;;;;;;;;;;4992378;28;20035;-71
2022/01/02 14:21:53;;;;;;;24.80;3.53;;;;;;;;;;5000733;28;20144;-72
2022/01/02 14:24:19;;;;;;;22.13;3.90;;;;;;;;;;4977861;28;20061;-73
2022/01/02 14:26:46;;;;;;;16.77;3.75;;;;;;;;;;5003274;28;20050;-72
2022/01/02 14:29:12;;;;;;;20.42;3.20;;;;;;;;;;4998944;28;20353;-73
2022/01/02 14:31:38;;;;;;;22.80;3.42;;;;;;;;;;4992046;28;20037;-73
2022/01/02 14:34:04;;;;;;;19.83;3.50;;;;;;;;;;4996573;28;20053;-72
2022/01/02 14:36:30;;;;;;;22.70;4.28;;;;;;;;;;4983442;28;20510;-72
2022/01/02 14:38:57;;;;;;;17.88;3.28;;;;;;;;;;4991379;28;20034;-73
2022/01/02 14:41:23;;;;;;;26.15;3.50;;;;;;;;;;4994001;28;20065;-73
2022/01/02 14:43:49;;;;;;;18.52;2.67;;;;;;;;;;4993616;28;20027;-71
2022/01/02 14:46:16;;;;;;;19.52;3.42;;;;;;;;;;4994675;28;20085;-73